Time;durP1;ratioP1;P1;durP2;ratioP2;P2;SDS_P1;SDS_P2;PMS_P1;PMS_P2;Temp;Humidity;BMP_temperature;BMP_pressure;BME280_temperature;BME280_humidity;BME280_pressure;Samples;Min_cycle;Max_cycle;Signal;HPM_P1;HPM_P2
2023/12/31 00:03:27;;;;;;;9.40;8.50;;;2.90;99.90;;;3.49;100.00;97510.31;10455860;28;20258;-66
2023/12/31 00:08:31;;;;;;;9.87;8.87;;;2.90;99.90;;;3.46;100.00;97504.09;10444738;28;20227;-65
2023/12/31 00:13:35;;;;;;;9.03;8.20;;;2.90;99.90;;;3.45;100.00;97498.19;10416090;28;20715;-66
2023/12/31 00:18:38;;;;;;;10.20;9.07;;;2.90;99.90;;;3.50;100.00;97483.38;10411538;28;20236;-66
2023/12/31 00:23:42;;;;;;;9.20;8.40;;;2.90;99.90;;;3.43;100.00;97464.31;10407820;28;20257;-66
2023/12/31 00:28:47;;;;;;;9.57;8.63;;;2.80;99.90;;;3.26;100.00;97464.66;10409115;28;20229;-66
2023/12/31 00:33:56;;;;;;;9.80;9.00;;;2.70;99.90;;;3.19;100.00;97467.47;10441407;28;20243;-66
2023/12/31 00:38:59;;;;;;;9.23;8.33;;;2.70;99.90;;;3.30;100.00;97457.44;10477186;28;20232;-64
2023/12/31 00:44:04;;;;;;;9.77;8.63;;;2.80;99.90;;;3.38;100.00;97456.41;10406696;28;20229;-64
2023/12/31 00:49:07;;;;;;;9.87;8.57;;;2.80;99.90;;;3.47;100.00;97441.09;10495893;28;20228;-64
2023/12/31 00:54:10;;;;;;;7.27;6.57;;;2.80;99.90;;;3.38;100.00;97446.31;10492079;28;20228;-65
2023/12/31 00:59:15;;;;;;;7.80;7.03;;;2.60;99.90;;;3.21;100.00;97435.66;10440442;28;20230;-64
2023/12/31 01:04:18;;;;;;;7.43;6.73;;;2.40;99.90;;;3.09;100.00;97428.88;10412039;28;20307;-65
2023/12/31 01:09:21;;;;;;;6.13;5.63;;;2.40;99.90;;;2.95;100.00;97431.97;10435094;28;20229;-65
2023/12/31 01:14:25;;;;;;;5.83;5.33;;;2.30;99.90;;;3.00;100.00;97429.78;10490432;28;20650;-64
2023/12/31 01:19:29;;;;;;;6.70;6.10;;;2.30;99.90;;;3.04;100.00;97422.59;10487709;28;20631;-65
2023/12/31 01:24:32;;;;;;;7.40;6.70;;;2.40;99.90;;;2.97;100.00;97406.84;10487108;28;20232;-64
2023/12/31 01:29:39;;;;;;;6.90;6.30;;;2.30;99.90;;;2.95;100.00;97406.72;10466644;28;20610;-64
2023/12/31 01:34:42;;;;;;;7.03;6.43;;;2.40;99.90;;;3.02;100.00;97388.75;10418677;28;20228;-65
2023/12/31 01:39:45;;;;;;;18.40;15.93;;;2.40;99.90;;;2.98;100.00;97381.72;10447985;28;20286;-65
2023/12/31 01:44:50;;;;;;;13.70;12.23;;;2.30;99.90;;;2.89;100.00;97376.84;10497401;28;20228;-66
2023/12/31 01:49:53;;;;;;;8.33;7.53;;;2.20;99.90;;;2.74;100.00;97365.53;10467566;28;20243;-65
2023/12/31 01:55:00;;;;;;;6.10;5.70;;;2.00;99.90;;;2.69;100.00;97366.84;10421281;28;20218;-64
2023/12/31 02:00:06;;;;;;;10.13;8.97;;;2.00;99.90;;;2.66;100.00;97364.94;10450758;28;20656;-67
2023/12/31 02:05:11;;;;;;;6.80;6.20;;;2.00;99.90;;;2.53;100.00;97367.25;10495462;28;20259;-64
2023/12/31 02:10:14;;;;;;;8.00;6.17;;;1.90;99.90;;;2.56;100.00;97354.88;10493655;28;20232;-65
2023/12/31 02:15:31;;;;;;;6.77;6.27;;;1.90;99.90;;;2.58;100.00;97335.72;10478562;28;20225;-65
2023/12/31 02:20:35;;;;;;;8.57;7.77;;;2.00;99.90;;;2.54;100.00;97325.25;10454894;28;20755;-66
2023/12/31 02:25:40;;;;;;;6.50;5.97;;;1.90;99.90;;;2.54;100.00;97318.56;10495626;28;20228;-67
2023/12/31 02:30:45;;;;;;;6.43;5.83;;;1.90;99.90;;;2.51;100.00;97308.22;10496548;28;20248;-64
2023/12/31 02:35:48;;;;;;;6.33;5.80;;;1.90;99.90;;;2.63;100.00;97304.16;10495245;28;20252;-65
2023/12/31 02:40:51;;;;;;;6.23;5.73;;;2.00;99.90;;;2.70;100.00;97303.88;10495027;28;20225;-65
2023/12/31 02:45:57;;;;;;;7.40;6.70;;;2.10;99.90;;;2.73;100.00;97302.34;10497035;28;20225;-66
2023/12/31 02:51:00;;;;;;;7.27;6.57;;;2.10;99.90;;;2.68;100.00;97290.25;10495808;28;20229;-64
2023/12/31 02:56:04;;;;;;;6.50;5.90;;;2.00;99.90;;;2.63;100.00;97281.47;10500656;28;20244;-66
2023/12/31 03:01:08;;;;;;;9.87;8.97;;;1.90;99.90;;;2.65;100.00;97277.38;10494580;28;20232;-67
2023/12/31 03:06:16;;;;;;;16.43;15.03;;;2.00;99.90;;;2.71;100.00;97264.38;10488834;28;20707;-65
2023/12/31 03:11:19;;;;;;;14.50;13.30;;;2.10;99.90;;;2.73;100.00;97267.03;10499751;28;20704;-66
2023/12/31 03:16:24;;;;;;;8.10;7.40;;;2.10;99.90;;;2.77;100.00;97248.81;10493824;28;20220;-66
2023/12/31 03:21:28;;;;;;;4.57;4.27;;;2.00;99.90;;;2.53;100.00;97245.31;10489842;28;20237;-66
2023/12/31 03:26:31;;;;;;;4.00;3.70;;;1.70;99.90;;;2.41;100.00;97222.53;10493651;28;20220;-67
2023/12/31 03:31:35;;;;;;;5.23;4.10;;;1.80;99.90;;;2.59;100.00;97212.97;10498633;28;20260;-66
2023/12/31 03:36:39;;;;;;;4.20;3.90;;;1.90;99.90;;;2.64;100.00;97212.56;10453404;28;20265;-66
2023/12/31 03:41:42;;;;;;;4.70;4.40;;;2.00;99.90;;;2.68;100.00;97198.53;10473871;28;20241;-65
2023/12/31 03:46:47;;;;;;;4.37;4.07;;;2.00;99.90;;;2.70;100.00;97187.81;10493188;28;20224;-65
2023/12/31 03:51:50;;;;;;;4.00;3.70;;;2.10;99.90;;;2.73;100.00;97166.97;10478310;28;20235;-64
2023/12/31 03:56:53;;;;;;;4.10;3.67;;;2.20;99.90;;;2.92;100.00;97165.09;10443160;28;20227;-65
2023/12/31 04:01:58;;;;;;;4.50;4.20;;;2.40;99.90;;;3.01;100.00;97159.84;10413145;28;20320;-65
2023/12/31 04:07:01;;;;;;;4.27;3.87;;;2.50;99.90;;;3.16;100.00;97150.88;10451741;28;20224;-66
2023/12/31 04:12:05;;;;;;;4.63;4.23;;;2.60;99.90;;;3.26;100.00;97151.53;10489519;28;20226;-66
2023/12/31 04:17:10;;;;;;;5.80;5.40;;;2.70;99.90;;;3.25;100.00;97144.72;10488812;28;20304;-66
2023/12/31 04:22:13;;;;;;;4.40;4.10;;;2.70;99.90;;;3.28;100.00;97119.69;10488414;28;20237;-66
2023/12/31 04:27:16;;;;;;;5.70;5.20;;;2.70;99.90;;;3.29;100.00;97117.31;10493506;28;20227;-66
2023/12/31 04:32:21;;;;;;;6.93;6.33;;;2.60;99.90;;;3.27;100.00;97105.34;10488670;28;20435;-65
2023/12/31 04:37:24;;;;;;;6.30;5.70;;;2.60;99.90;;;3.20;100.00;97087.97;10489333;28;20708;-67
2023/12/31 04:42:27;;;;;;;6.70;6.03;;;2.50;99.90;;;3.25;100.00;97084.13;10489464;28;20232;-66
2023/12/31 04:47:31;;;;;;;6.20;5.70;;;2.50;99.90;;;3.11;100.00;97088.19;10480055;28;20228;-65
2023/12/31 04:52:35;;;;;;;5.27;4.87;;;2.40;99.90;;;3.11;100.00;97084.00;10483681;28;20244;-66
2023/12/31 04:57:38;;;;;;;5.17;4.80;;;2.40;99.90;;;3.13;100.00;97079.94;10494252;28;20235;-66
2023/12/31 05:02:42;;;;;;;6.47;6.03;;;2.50;99.90;;;3.21;100.00;97078.00;10453246;28;20241;-67
2023/12/31 05:07:46;;;;;;;5.33;4.93;;;2.50;99.90;;;3.22;100.00;97069.63;10447613;28;20688;-65
2023/12/31 05:12:49;;;;;;;5.00;4.60;;;2.50;99.90;;;3.30;100.00;97070.19;10501666;28;20220;-66
2023/12/31 05:17:54;;;;;;;5.13;4.83;;;2.60;99.90;;;3.28;100.00;97059.09;10432282;28;20292;-67
2023/12/31 05:22:57;;;;;;;4.87;4.47;;;2.60;99.90;;;3.31;100.00;97047.56;10407905;28;20277;-67
2023/12/31 05:28:00;;;;;;;4.43;4.13;;;2.70;99.90;;;3.51;100.00;97048.97;10482031;28;20297;-66
2023/12/31 05:33:05;;;;;;;4.93;3.90;;;2.80;99.90;;;3.39;100.00;97040.53;10478186;28;20303;-66
2023/12/31 05:38:08;;;;;;;3.60;3.30;;;2.70;99.90;;;3.38;100.00;97032.09;10492209;28;20234;-65
2023/12/31 05:43:12;;;;;;;3.53;3.33;;;2.70;99.90;;;3.33;100.00;97032.53;10501341;28;20254;-66
2023/12/31 05:48:17;;;;;;;3.63;3.33;;;2.70;99.90;;;3.42;100.00;97028.13;10425063;28;20709;-65
2023/12/31 05:53:20;;;;;;;3.30;3.10;;;2.70;99.90;;;3.40;100.00;97011.97;10495102;28;20317;-65
2023/12/31 05:58:23;;;;;;;3.57;3.30;;;2.80;99.90;;;3.51;100.00;97007.69;10492996;28;20238;-64
2023/12/31 06:03:28;;;;;;;3.37;3.17;;;2.80;99.90;;;3.38;100.00;97005.97;10491682;28;20236;-65
2023/12/31 06:08:31;;;;;;;3.10;2.90;;;2.70;99.90;;;3.36;100.00;96997.41;10493212;28;20226;-65
2023/12/31 06:13:34;;;;;;;3.07;2.90;;;2.70;99.90;;;3.55;100.00;96995.41;10494293;28;20317;-64
2023/12/31 06:18:38;;;;;;;3.17;3.07;;;2.90;99.90;;;3.60;100.00;96988.97;10494401;28;20261;-65
2023/12/31 06:23:41;;;;;;;2.80;2.60;;;2.90;99.90;;;3.42;100.00;96989.38;10503004;28;20236;-66
2023/12/31 06:28:45;;;;;;;3.33;3.13;;;2.80;99.90;;;3.42;100.00;96991.91;10496625;28;20296;-64
2023/12/31 06:33:49;;;;;;;3.80;3.60;;;2.80;99.90;;;3.34;100.00;96981.25;10499104;28;20251;-65
2023/12/31 06:38:53;;;;;;;3.43;3.20;;;2.70;99.90;;;3.27;100.00;96979.09;10497725;28;20232;-65
2023/12/31 06:43:56;;;;;;;3.33;3.03;;;2.60;99.90;;;3.30;100.00;96974.25;10427808;28;20241;-65
2023/12/31 06:49:01;;;;;;;3.27;3.00;;;2.70;99.90;;;3.32;100.00;96960.97;10414389;28;20226;-64
2023/12/31 06:54:04;;;;;;;4.10;3.90;;;2.70;99.90;;;3.39;100.00;96953.03;10485517;28;20241;-65
2023/12/31 06:59:07;;;;;;;3.27;3.07;;;2.70;99.90;;;3.36;100.00;96969.63;10498585;28;20229;-65
2023/12/31 07:04:12;;;;;;;4.93;4.53;;;2.80;99.90;;;3.41;100.00;96969.94;10431620;28;20226;-66
2023/12/31 07:09:15;;;;;;;5.47;4.43;;;2.70;99.90;;;3.45;100.00;96980.34;10416938;28;20240;-64
2023/12/31 07:14:19;;;;;;;7.17;6.57;;;2.70;99.90;;;3.44;100.00;96986.19;10487417;28;20307;-65
2023/12/31 07:19:23;;;;;;;7.57;6.90;;;2.80;99.90;;;3.58;100.00;96972.88;10504789;28;20238;-64
2023/12/31 07:24:27;;;;;;;3.80;3.60;;;2.90;99.90;;;3.77;100.00;96981.69;10487529;28;20258;-64
2023/12/31 07:29:30;;;;;;;4.40;4.10;;;3.00;99.90;;;3.73;100.00;96972.16;10432888;28;20236;-65
2023/12/31 07:34:35;;;;;;;3.53;3.33;;;3.00;99.90;;;3.75;100.00;96985.75;10458429;28;20227;-65
2023/12/31 07:39:41;;;;;;;7.53;6.93;;;3.10;99.90;;;3.77;100.00;96992.69;10485295;28;20593;-65
2023/12/31 07:44:45;;;;;;;11.80;10.03;;;3.10;99.90;;;3.87;100.00;97001.78;10491130;28;20230;-65
2023/12/31 07:49:49;;;;;;;8.03;7.27;;;3.10;99.90;;;3.92;100.00;97008.03;10491755;28;20844;-65
2023/12/31 07:54:53;;;;;;;7.30;6.70;;;3.20;99.90;;;3.91;100.00;97016.38;10484614;28;20223;-65
2023/12/31 07:59:56;;;;;;;5.10;4.60;;;3.20;99.90;;;3.98;100.00;97030.34;10426944;28;20236;-64
2023/12/31 08:05:00;;;;;;;5.23;4.93;;;3.20;99.90;;;4.12;100.00;97043.91;10488016;28;20704;-65
2023/12/31 08:10:05;;;;;;;6.20;5.70;;;3.30;99.90;;;4.09;100.00;97058.88;10451213;28;20246;-67
2023/12/31 08:15:09;;;;;;;26.50;19.40;;;3.30;99.90;;;3.91;100.00;97054.28;10435162;28;20724;-65
2023/12/31 08:20:14;;;;;;;6.70;6.10;;;3.20;99.90;;;4.02;100.00;97038.22;10440453;28;20247;-65
2023/12/31 08:25:17;;;;;;;5.70;5.20;;;3.40;99.90;;;4.08;100.00;97047.88;10428561;28;20232;-65
2023/12/31 08:30:21;;;;;;;5.80;5.40;;;3.50;99.90;;;4.23;100.00;97055.63;10454664;28;20281;-66
2023/12/31 08:35:26;;;;;;;5.90;5.40;;;3.60;99.90;;;4.41;100.00;97048.44;10456895;28;20622;-65
2023/12/31 08:40:29;;;;;;;6.17;5.67;;;3.80;99.90;;;4.57;100.00;97037.66;10466499;28;20276;-65
2023/12/31 08:45:33;;;;;;;7.80;7.00;;;3.90;99.90;;;4.63;100.00;97040.59;10431854;28;20244;-65
2023/12/31 08:50:38;;;;;;;10.90;9.80;;;3.90;99.90;;;4.66;100.00;97028.13;10407136;28;20217;-66
2023/12/31 08:55:41;;;;;;;8.73;7.93;;;3.90;99.90;;;4.66;100.00;97023.06;10399486;28;20611;-65
2023/12/31 09:00:44;;;;;;;6.73;6.23;;;4.00;99.90;;;4.88;100.00;97017.78;10489831;28;20234;-66
2023/12/31 09:05:48;;;;;;;8.23;7.20;;;4.20;99.90;;;4.79;100.00;97014.66;10465548;28;20692;-65
2023/12/31 09:10:54;;;;;;;5.90;5.40;;;4.20;99.90;;;4.97;100.00;97014.16;10474591;28;20231;-67
2023/12/31 09:15:57;;;;;;;8.50;7.83;;;4.40;99.90;;;5.17;100.00;97015.44;10432184;28;20325;-68
2023/12/31 09:21:01;;;;;;;10.20;9.40;;;4.60;99.90;;;5.23;100.00;97026.75;10442575;28;21484;-68
2023/12/31 09:26:05;;;;;;;15.03;13.93;;;4.60;99.90;;;5.37;100.00;97009.13;10495509;28;20311;-67
2023/12/31 09:31:08;;;;;;;12.00;11.03;;;4.70;99.90;;;5.53;100.00;96999.97;10494122;28;20239;-67
2023/12/31 09:36:13;;;;;;;6.60;6.10;;;5.00;99.90;;;5.85;100.00;96992.66;10491613;28;20228;-66
2023/12/31 09:41:23;;;;;;;9.80;9.00;;;5.20;99.90;;;6.27;100.00;96980.84;10498297;28;20255;-64
2023/12/31 09:46:30;;;;;;;9.43;7.23;;;5.50;99.90;;;6.25;100.00;96976.47;10488165;28;20227;-67
2023/12/31 09:51:36;;;;;;;6.07;5.47;;;5.50;99.90;;;6.19;100.00;96956.69;10491482;28;20291;-66
2023/12/31 09:56:41;;;;;;;6.30;5.80;;;5.50;99.90;;;6.24;100.00;96946.81;10499288;28;20608;-66
2023/12/31 10:01:46;;;;;;;6.30;5.73;;;5.60;99.90;;;6.40;100.00;96933.34;10414813;28;20229;-66
2023/12/31 10:06:51;;;;;;;6.67;5.43;;;5.80;99.90;;;6.59;100.00;96915.84;10429338;28;20229;-66
2023/12/31 10:11:55;;;;;;;6.20;5.60;;;6.00;99.90;;;6.78;100.00;96910.13;10485730;28;20243;-65
2023/12/31 10:16:58;;;;;;;5.97;5.37;;;6.20;99.90;;;7.05;100.00;96895.53;10416447;28;20573;-66
2023/12/31 10:22:06;;;;;;;7.00;6.40;;;6.40;99.90;;;7.33;100.00;96891.97;10454488;28;20625;-66
2023/12/31 10:27:09;;;;;;;7.33;6.60;;;6.60;99.90;;;7.44;100.00;96865.47;10465924;28;20233;-66
2023/12/31 10:32:13;;;;;;;5.70;5.00;;;6.70;99.90;;;7.50;100.00;96868.31;10415523;28;20236;-66
2023/12/31 10:37:23;;;;;;;6.10;5.70;;;6.70;99.90;;;7.75;99.23;96846.69;10410127;28;20315;-66
2023/12/31 10:42:27;;;;;;;6.30;5.70;;;7.00;99.90;;;8.04;97.16;96832.91;10416328;28;20233;-65
2023/12/31 10:47:32;;;;;;;5.47;4.97;;;7.20;99.90;;;8.06;97.48;96803.31;10413456;28;20247;-66
2023/12/31 10:52:38;;;;;;;5.97;5.33;;;7.40;99.90;;;8.19;98.44;96780.22;10412902;28;20228;-65
2023/12/31 10:57:43;;;;;;;7.70;7.00;;;7.60;99.90;;;8.48;97.36;96778.22;10413104;28;20736;-65
2023/12/31 11:02:46;;;;;;;4.50;4.10;;;7.90;99.90;;;8.94;87.84;96758.31;10406202;28;20607;-65
2023/12/31 11:07:52;;;;;;;4.97;4.50;;;8.30;99.90;;;8.94;90.00;96754.88;10414931;28;20270;-64
2023/12/31 11:12:55;;;;;;;5.30;4.80;;;8.30;99.90;;;9.10;88.70;96751.34;10406027;28;20248;-66
2023/12/31 11:18:26;;;;;;;5.55;4.93;;;8.40;99.90;;;9.13;88.81;96757.47;10409379;28;20251;-66
2023/12/31 11:23:44;;;;;;;5.32;4.82;;;8.40;99.90;;;9.39;86.94;96738.22;10488795;28;20230;-65
2023/12/31 11:28:49;;;;;;;4.93;4.50;;;8.60;99.90;;;9.88;82.92;96726.66;10436046;28;20323;-66
2023/12/31 11:33:53;;;;;;;9.32;7.18;;;9.00;99.90;;;10.10;80.41;96720.72;10410110;28;20249;-66
2023/12/31 11:39:02;;;;;;;46.75;29.50;;;9.30;99.90;;;10.49;76.06;96705.25;10416534;28;20233;-66
2023/12/31 11:44:05;;;;;;;4.20;3.80;;;9.80;99.90;;;10.85;73.57;96697.25;10419988;28;20577;-66
2023/12/31 11:49:10;;;;;;;9.35;8.07;;;10.10;99.90;;;11.07;69.61;96686.97;10419007;28;20935;-66
2023/12/31 11:54:20;;;;;;;10.93;9.93;;;10.40;99.90;;;11.36;67.86;96689.69;10410574;28;20222;-66
2023/12/31 11:59:23;;;;;;;5.00;4.60;;;10.70;99.90;;;11.46;66.10;96691.75;10404214;28;20768;-68
2023/12/31 12:04:26;;;;;;;3.20;3.00;;;10.90;99.90;;;11.38;66.22;96696.59;10409520;28;20236;-66
2023/12/31 12:09:32;;;;;;;5.03;4.68;;;10.80;99.90;;;11.62;65.15;96706.84;10411363;28;20268;-66
2023/12/31 12:14:36;;;;;;;5.25;4.90;;;11.00;99.90;;;11.69;65.39;96719.00;10425317;28;20244;-67
2023/12/31 12:19:39;;;;;;;4.40;4.00;;;11.00;99.90;;;11.38;68.11;96741.78;10454142;28;20244;-66
2023/12/31 12:24:43;;;;;;;3.90;3.60;;;10.70;99.90;;;11.32;71.41;96824.31;10472052;28;20309;-67
2023/12/31 12:29:47;;;;;;;6.75;6.15;;;10.70;99.90;;;10.76;78.53;96899.69;10467490;28;20258;-67
2023/12/31 12:34:50;;;;;;;3.40;3.20;;;10.10;99.90;;;10.13;82.28;96922.56;10425772;28;20231;-65
2023/12/31 12:39:58;;;;;;;4.00;3.70;;;9.60;99.90;;;9.69;86.68;96969.94;10418817;28;20237;-66
2023/12/31 12:45:02;;;;;;;4.03;3.70;;;9.00;99.90;;;9.17;91.90;96982.81;10399734;28;20680;-66
2023/12/31 12:50:06;;;;;;;3.60;3.40;;;8.50;99.90;;;9.07;92.59;96980.59;10406158;28;20327;-67
2023/12/31 12:55:10;;;;;;;2.60;2.40;;;8.30;99.90;;;8.57;95.59;96990.91;10411179;28;20233;-67
2023/12/31 13:00:16;;;;;;;2.17;2.08;;;8.00;99.90;;;8.42;96.82;96994.38;10417021;28;20324;-65
2023/12/31 13:05:19;;;;;;;2.33;2.23;;;7.90;99.90;;;8.24;99.22;96991.69;10425027;28;20237;-65
2023/12/31 13:10:23;;;;;;;2.37;2.23;;;7.70;99.90;;;8.23;100.00;96992.50;10494155;28;22140;-65
2023/12/31 13:15:27;;;;;;;2.13;2.03;;;7.70;99.90;;;7.96;100.00;96982.66;10493274;28;20691;-65
2023/12/31 13:20:30;;;;;;;5.03;4.73;;;7.50;99.90;;;7.86;100.00;96993.13;10495338;28;20311;-65
2023/12/31 13:25:34;;;;;;;4.13;3.80;;;7.40;99.90;;;7.79;100.00;96998.69;10496329;28;20228;-65
2023/12/31 13:30:38;;;;;;;2.67;2.20;;;7.30;99.90;;;7.75;100.00;96999.28;10504932;28;20311;-66
2023/12/31 13:35:41;;;;;;;3.00;2.70;;;7.20;99.90;;;7.71;100.00;96997.41;10497100;28;20233;-67
2023/12/31 13:40:46;;;;;;;2.70;2.57;;;7.20;99.90;;;7.77;100.00;96996.03;10499904;28;20265;-66
2023/12/31 13:45:49;;;;;;;3.10;2.60;;;7.20;99.90;;;7.74;100.00;96997.56;10501506;28;20699;-67
2023/12/31 13:50:52;;;;;;;4.10;3.80;;;7.20;99.90;;;7.74;100.00;97002.66;10483309;28;20221;-68
2023/12/31 13:55:57;;;;;;;3.83;3.63;;;7.10;99.90;;;7.74;100.00;96993.34;10498160;28;20307;-67
2023/12/31 14:01:00;;;;;;;6.23;5.70;;;7.10;99.90;;;7.64;100.00;96989.44;10489758;28;20255;-66
2023/12/31 14:06:04;;;;;;;4.43;4.13;;;7.00;99.90;;;7.57;100.00;96989.00;10479640;28;20695;-67
2023/12/31 14:11:09;;;;;;;3.50;3.30;;;7.00;99.90;;;7.55;100.00;96988.03;10478064;28;20243;-66
2023/12/31 14:16:12;;;;;;;4.03;3.73;;;7.00;99.90;;;7.59;100.00;96992.53;10477961;28;20258;-66
2023/12/31 14:21:15;;;;;;;12.47;8.73;;;7.00;99.90;;;7.55;100.00;96991.47;10498935;28;20232;-66
2023/12/31 14:26:20;;;;;;;15.33;10.60;;;7.00;99.90;;;7.82;100.00;96991.22;10464411;28;20611;-67
2023/12/31 14:31:23;;;;;;;3.03;2.80;;;7.00;99.90;;;7.75;100.00;96977.28;10452764;28;20290;-66
2023/12/31 14:36:26;;;;;;;5.53;5.03;;;7.00;99.90;;;7.77;100.00;96962.97;10424748;28;20228;-67
2023/12/31 14:41:31;;;;;;;3.97;3.40;;;7.10;99.90;;;7.74;100.00;96955.19;10449983;28;20296;-66
2023/12/31 14:46:34;;;;;;;3.73;3.43;;;7.10;99.90;;;7.99;100.00;96969.22;10434121;28;20225;-66
2023/12/31 14:51:37;;;;;;;3.97;3.67;;;7.20;99.90;;;8.01;100.00;96947.25;10418407;28;20243;-66
2023/12/31 14:56:42;;;;;;;3.50;3.30;;;7.30;99.90;;;7.61;100.00;96958.75;10422907;28;20330;-67
2023/12/31 15:01:45;;;;;;;3.90;3.70;;;7.10;99.90;;;7.63;100.00;96964.78;10413047;28;20307;-66
2023/12/31 15:06:48;;;;;;;3.10;2.90;;;7.00;99.90;;;7.46;100.00;96955.38;10412229;28;20371;-67
2023/12/31 15:11:53;;;;;;;4.80;4.40;;;6.90;99.90;;;7.45;100.00;96941.78;10414725;28;20881;-67
2023/12/31 15:16:56;;;;;;;2.70;2.50;;;6.90;99.90;;;7.33;100.00;96937.72;10407956;28;20515;-66
2023/12/31 15:22:00;;;;;;;3.20;2.93;;;6.80;99.90;;;7.26;100.00;96946.66;10411049;28;20237;-66
2023/12/31 15:27:05;;;;;;;2.73;2.63;;;6.70;99.90;;;7.26;100.00;96953.41;10413356;28;20359;-67
2023/12/31 15:32:08;;;;;;;2.50;2.30;;;6.70;99.90;;;7.26;100.00;96967.00;10413063;28;20653;-66
2023/12/31 15:37:11;;;;;;;2.73;2.53;;;6.70;99.90;;;7.25;100.00;96960.16;10431947;28;20216;-67
2023/12/31 15:42:15;;;;;;;2.77;2.57;;;6.60;99.90;;;7.25;100.00;96965.25;10482720;28;20433;-67
2023/12/31 15:47:19;;;;;;;4.20;3.87;;;6.60;99.90;;;7.17;100.00;96985.16;10482792;28;20229;-66
2023/12/31 15:52:22;;;;;;;3.57;3.37;;;6.60;99.90;;;7.16;100.00;96978.31;10479304;28;20708;-67
2023/12/31 15:57:27;;;;;;;4.50;4.20;;;6.50;99.90;;;7.04;100.00;96964.94;10464070;28;20244;-66
2023/12/31 16:02:30;;;;;;;3.33;3.13;;;6.50;99.90;;;7.09;100.00;96948.25;10421049;28;20691;-66
2023/12/31 16:07:33;;;;;;;3.33;3.13;;;6.40;99.90;;;7.05;100.00;96943.81;10443831;28;20616;-67
2023/12/31 16:12:38;;;;;;;6.33;5.83;;;6.40;99.90;;;7.07;100.00;96951.50;10481526;28;20231;-66
2023/12/31 16:17:41;;;;;;;8.27;7.43;;;6.40;99.90;;;6.99;100.00;96979.91;10481246;28;20243;-66
2023/12/31 16:22:44;;;;;;;6.90;6.30;;;6.40;99.90;;;7.03;100.00;96973.34;10482719;28;20224;-66
2023/12/31 16:27:49;;;;;;;9.77;8.83;;;6.40;99.90;;;6.97;100.00;96962.84;10485644;28;20258;-67
2023/12/31 16:32:52;;;;;;;10.80;9.80;;;6.30;99.90;;;6.98;100.00;96984.91;10483289;28;20228;-65
2023/12/31 16:37:55;;;;;;;7.53;6.80;;;6.30;99.90;;;6.92;100.00;97020.13;10480995;28;20230;-67
2023/12/31 16:43:04;;;;;;;6.57;6.00;;;6.30;99.90;;;6.85;100.00;97033.28;10484324;28;20663;-66
2023/12/31 16:48:08;;;;;;;7.70;6.90;;;6.20;99.90;;;6.86;100.00;97046.03;10475901;28;20224;-65
2023/12/31 16:53:14;;;;;;;6.00;5.57;;;6.20;99.90;;;6.67;100.00;97039.03;10482227;28;20224;-67
2023/12/31 16:58:19;;;;;;;28.90;15.73;;;6.10;99.90;;;6.65;100.00;97058.38;10479699;28;20238;-66
2023/12/31 17:03:22;;;;;;;25.47;16.90;;;6.00;99.90;;;6.65;100.00;97076.13;10461602;28;20239;-66
2023/12/31 17:08:26;;;;;;;5.53;4.57;;;6.00;99.90;;;6.74;100.00;97080.88;10454698;28;20232;-66
2023/12/31 17:13:30;;;;;;;10.67;7.90;;;6.10;99.90;;;6.79;100.00;97078.63;10484104;28;20597;-66
2023/12/31 17:18:33;;;;;;;26.53;15.43;;;6.20;99.90;;;6.65;100.00;97071.06;10474371;28;20624;-67
2023/12/31 17:23:36;;;;;;;8.20;6.53;;;6.20;99.90;;;6.59;100.00;97075.78;10481435;28;20228;-67
2023/12/31 17:28:41;;;;;;;3.67;3.37;;;6.10;99.90;;;6.72;100.00;97068.13;10469951;28;20298;-67
2023/12/31 17:33:44;;;;;;;27.27;24.43;;;6.10;99.90;;;6.69;100.00;97067.91;10403790;28;20307;-66
2023/12/31 17:38:47;;;;;;;7.70;7.00;;;6.10;99.90;;;6.59;100.00;97073.25;10428168;28;20228;-67
2023/12/31 17:43:52;;;;;;;5.17;4.67;;;6.10;99.90;;;6.54;100.00;97072.97;10489824;28;20224;-67
2023/12/31 17:48:55;;;;;;;6.00;5.40;;;6.00;99.90;;;6.66;100.00;97077.00;10457096;28;20588;-66
2023/12/31 17:53:58;;;;;;;5.73;5.30;;;6.10;99.90;;;6.73;100.00;97085.09;10440160;28;20229;-66
2023/12/31 17:59:03;;;;;;;6.30;5.53;;;6.10;99.90;;;6.66;100.00;97100.72;10422104;28;20307;-67
2023/12/31 18:04:07;;;;;;;88.47;77.93;;;6.10;99.90;;;6.66;100.00;97092.25;10442694;28;20232;-65
2023/12/31 18:09:10;;;;;;;25.27;22.57;;;6.00;99.90;;;6.73;100.00;97102.00;10480389;28;20313;-66
2023/12/31 18:14:14;;;;;;;4.83;4.43;;;6.10;99.90;;;6.91;100.00;97104.75;10471593;28;20241;-66
2023/12/31 18:19:17;;;;;;;4.90;4.43;;;6.10;99.90;;;7.16;96.57;97107.91;10428660;28;20240;-67
2023/12/31 18:24:20;;;;;;;4.30;3.90;;;6.30;99.90;;;7.20;95.77;97101.34;10407571;28;20218;-66
2023/12/31 18:29:25;;;;;;;7.07;6.47;;;6.50;99.90;;;7.11;96.88;97093.19;10412683;28;20233;-65
2023/12/31 18:34:28;;;;;;;7.00;6.30;;;6.40;99.90;;;7.09;96.96;97093.09;10424416;28;21018;-66
2023/12/31 18:39:32;;;;;;;9.83;8.83;;;6.40;99.90;;;6.92;97.16;97096.31;10488400;28;20354;-66
2023/12/31 18:44:37;;;;;;;16.37;14.67;;;6.30;99.90;;;6.94;97.46;97084.59;10451178;28;20230;-66
2023/12/31 18:49:44;;;;;;;8.80;8.00;;;6.30;99.90;;;6.90;96.58;97090.28;10441971;28;20230;-66
2023/12/31 18:54:47;;;;;;;5.80;5.20;;;6.20;99.90;;;7.02;94.49;97088.47;10426165;28;20217;-66
2023/12/31 18:59:52;;;;;;;5.60;5.10;;;6.30;99.90;;;6.79;96.74;97079.50;10468926;28;20271;-67
2023/12/31 19:04:57;;;;;;;4.83;4.43;;;6.20;99.90;;;6.64;96.78;97082.03;10471625;28;20230;-66
2023/12/31 19:10:00;;;;;;;5.00;4.60;;;6.10;99.90;;;6.59;97.05;97096.09;10493355;28;20239;-66
2023/12/31 19:15:06;;;;;;;5.97;5.40;;;6.00;99.90;;;6.43;97.84;97113.72;10489673;28;20335;-66
2023/12/31 19:20:12;;;;;;;61.10;53.20;;;5.90;99.90;;;6.39;98.85;97104.19;10485319;28;20813;-67
2023/12/31 19:25:15;;;;;;;21.30;19.20;;;5.80;99.90;;;6.35;100.00;97104.75;10486229;28;20236;-67
2023/12/31 19:30:20;;;;;;;6.53;5.37;;;5.70;99.90;;;6.28;100.00;97098.44;10492830;28;20645;-67
2023/12/31 19:35:23;;;;;;;3.33;3.13;;;5.70;99.90;;;6.29;100.00;97095.09;10493315;28;20898;-67
2023/12/31 19:40:26;;;;;;;5.23;4.70;;;5.60;99.90;;;6.27;98.86;97087.41;10485072;28;20609;-66
2023/12/31 19:45:31;;;;;;;3.67;3.37;;;5.60;99.90;;;6.24;98.71;97092.31;10473458;28;20252;-67
2023/12/31 19:50:34;;;;;;;4.67;4.30;;;5.60;99.90;;;6.13;99.44;97106.00;10491623;28;20824;-66
2023/12/31 19:55:38;;;;;;;3.97;3.67;;;5.50;99.90;;;6.08;98.37;97107.38;10497416;28;20586;-66
2023/12/31 20:00:43;;;;;;;4.63;4.20;;;5.50;99.90;;;6.09;97.97;97112.53;10483802;28;20232;-67
2023/12/31 20:05:46;;;;;;;4.37;3.97;;;5.50;99.90;;;6.12;99.21;97113.50;10490761;28;20248;-66
2023/12/31 20:10:51;;;;;;;7.10;6.40;;;5.50;99.90;;;6.05;99.65;97112.25;10495585;28;20225;-67
2023/12/31 20:15:55;;;;;;;6.67;6.07;;;5.40;99.90;;;6.07;99.60;97103.09;10486716;28;20245;-66
2023/12/31 20:20:58;;;;;;;6.73;6.13;;;5.40;99.90;;;6.06;99.91;97096.22;10474401;28;20623;-66
2023/12/31 20:26:01;;;;;;;7.17;6.47;;;5.40;99.90;;;6.00;99.65;97111.09;10434998;28;20725;-67
2023/12/31 20:31:06;;;;;;;8.80;7.90;;;5.30;99.90;;;5.98;100.00;97122.78;10454235;28;20227;-67
2023/12/31 20:36:09;;;;;;;8.00;7.20;;;5.30;99.90;;;5.88;100.00;97129.78;10483909;28;20234;-67
2023/12/31 20:41:13;;;;;;;11.90;9.90;;;5.20;99.90;;;5.77;100.00;97124.81;10488106;28;20795;-66
2023/12/31 20:46:18;;;;;;;13.20;11.63;;;5.10;99.90;;;5.66;100.00;97134.28;10490100;28;20231;-67
2023/12/31 20:51:22;;;;;;;14.30;11.80;;;5.00;99.90;;;5.64;100.00;97130.78;10491261;28;20342;-67
2023/12/31 20:56:25;;;;;;;15.60;13.07;;;4.90;99.90;;;5.67;100.00;97136.03;10474584;28;20611;-67
2023/12/31 21:01:30;;;;;;;12.10;10.30;;;4.90;99.90;;;5.43;100.00;97136.19;10481589;28;20311;-67
2023/12/31 21:06:34;;;;;;;11.57;10.33;;;4.70;99.90;;;5.34;100.00;97139.81;10481937;28;20325;-68
2023/12/31 21:11:38;;;;;;;9.27;8.33;;;4.60;99.90;;;5.30;100.00;97133.66;10487648;28;20243;-66
2023/12/31 21:16:42;;;;;;;12.07;10.83;;;4.60;99.90;;;5.32;100.00;97142.25;10475339;28;20696;-67